createdAt,value
2022-12-14T06:17:30.826Z,35.40
2022-12-14T06:19:58.173Z,37.83
2022-12-14T06:22:25.750Z,35.63
2022-12-14T06:24:53.010Z,37.50
2022-12-14T06:27:20.535Z,37.13
2022-12-14T06:29:47.794Z,35.93
2022-12-14T06:32:15.047Z,36.13
2022-12-14T06:34:42.625Z,36.43
2022-12-14T06:37:10.122Z,36.03
2022-12-14T06:39:37.697Z,37.10
2022-12-14T06:42:05.384Z,36.10
2022-12-14T06:44:32.753Z,34.97
2022-12-14T06:47:00.390Z,35.20
2022-12-14T06:49:28.055Z,35.77
2022-12-14T06:51:55.743Z,35.63
2022-12-14T06:54:23.074Z,35.43
2022-12-14T06:56:50.388Z,34.40
2022-12-14T06:59:17.851Z,34.67
2022-12-14T07:01:46.141Z,34.63
2022-12-14T07:04:18.777Z,35.03
2022-12-14T07:06:46.075Z,35.53
2022-12-14T07:09:14.426Z,35.00
2022-12-14T07:11:42.048Z,34.93
2022-12-14T07:14:11.805Z,36.60
2022-12-14T07:16:40.001Z,35.87
2022-12-14T07:19:07.417Z,35.67
2022-12-14T07:21:34.824Z,34.63
2022-12-14T07:24:02.448Z,34.00
2022-12-14T07:26:30.628Z,35.40
2022-12-14T07:29:00.708Z,34.10
2022-12-14T07:31:28.769Z,33.83
2022-12-14T07:33:57.334Z,34.97
2022-12-14T07:36:25.744Z,36.67
2022-12-14T07:38:53.395Z,36.63
2022-12-14T07:41:23.316Z,35.83
2022-12-14T07:43:51.590Z,36.10
2022-12-14T07:46:20.441Z,36.23
2022-12-14T07:48:49.031Z,36.13
2022-12-14T07:51:17.376Z,36.60
2022-12-14T07:53:44.735Z,36.63
2022-12-14T07:56:13.838Z,36.77
2022-12-14T07:58:41.314Z,37.93
2022-12-14T08:01:13.654Z,37.00
2022-12-14T08:03:41.987Z,36.50
2022-12-14T08:06:10.609Z,37.30
2022-12-14T08:08:38.514Z,40.43
2022-12-14T08:11:06.129Z,36.70
2022-12-14T08:13:33.825Z,38.10
2022-12-14T08:16:05.175Z,39.23
2022-12-14T08:18:33.336Z,36.83
2022-12-14T08:21:01.210Z,36.67
2022-12-14T08:23:29.263Z,35.73
2022-12-14T08:25:57.954Z,37.20
2022-12-14T08:28:25.616Z,37.90
2022-12-14T08:30:52.967Z,37.33
2022-12-14T08:33:20.923Z,37.17
2022-12-14T08:35:48.463Z,37.70
2022-12-14T08:38:16.812Z,36.33
2022-12-14T08:40:44.203Z,39.47
2022-12-14T08:43:11.531Z,39.53
2022-12-14T08:45:39.021Z,41.97
2022-12-14T08:48:06.623Z,42.77
2022-12-14T08:50:33.935Z,44.10
2022-12-14T08:53:01.304Z,43.10
2022-12-14T08:55:32.532Z,41.60
2022-12-14T08:58:02.620Z,42.33
2022-12-14T09:00:30.116Z,42.23
2022-12-14T09:02:57.685Z,41.17
2022-12-14T09:05:25.369Z,40.63
2022-12-14T09:07:52.623Z,41.10
2022-12-14T09:10:20.217Z,40.80
2022-12-14T09:12:47.628Z,42.20
2022-12-14T09:15:15.001Z,38.63
2022-12-14T09:17:42.426Z,40.17
2022-12-14T09:20:10.566Z,38.97
2022-12-14T09:22:37.956Z,38.63
2022-12-14T09:25:05.369Z,39.67
2022-12-14T09:27:33.665Z,38.97
2022-12-14T09:30:00.996Z,39.10
2022-12-14T09:32:31.699Z,38.80
2022-12-14T09:34:59.551Z,40.50
2022-12-14T09:37:26.861Z,39.23
2022-12-14T09:39:54.338Z,40.23
2022-12-14T09:42:39.850Z,39.90
2022-12-14T09:45:19.507Z,40.20
2022-12-14T09:47:52.922Z,38.63
2022-12-14T09:50:21.666Z,38.93
2022-12-14T09:52:53.688Z,39.27
2022-12-14T09:55:23.491Z,37.93
2022-12-14T09:57:53.242Z,38.87
2022-12-14T10:00:21.150Z,39.30
2022-12-14T10:02:51.701Z,39.63
2022-12-14T10:05:24.813Z,38.87
2022-12-14T10:08:11.096Z,37.30
2022-12-14T10:10:47.290Z,38.73
2022-12-14T10:13:35.530Z,38.67
2022-12-14T10:16:13.414Z,38.77
2022-12-14T10:19:00.570Z,37.97
2022-12-14T10:21:34.981Z,37.73
2022-12-14T10:24:04.264Z,39.43
2022-12-14T10:26:35.440Z,39.97
2022-12-14T10:29:15.854Z,39.30
2022-12-14T10:31:55.271Z,42.40
2022-12-14T10:34:24.786Z,39.53
2022-12-14T10:36:56.015Z,39.93
2022-12-14T10:39:31.485Z,40.53
2022-12-14T10:42:02.327Z,39.73
2022-12-14T10:44:35.046Z,41.20
2022-12-14T10:47:05.686Z,39.70
2022-12-14T10:49:37.465Z,39.57
2022-12-14T10:52:09.224Z,38.37
2022-12-14T10:54:45.283Z,37.90
2022-12-14T10:57:19.489Z,39.27
2022-12-14T11:00:05.275Z,40.00
2022-12-14T11:02:36.162Z,38.93
2022-12-14T11:05:12.916Z,38.33
2022-12-14T11:07:43.402Z,38.53
2022-12-14T11:10:23.962Z,40.67
2022-12-14T11:13:11.511Z,39.50
2022-12-14T11:15:43.121Z,36.73
2022-12-14T11:18:13.376Z,37.70
2022-12-14T11:20:56.619Z,37.03
2022-12-14T11:23:31.708Z,37.83
2022-12-14T11:26:00.627Z,38.07
2022-12-14T11:28:50.366Z,35.90
2022-12-14T11:31:18.111Z,35.83
2022-12-14T11:33:50.389Z,36.87
2022-12-14T11:36:25.608Z,36.57
2022-12-14T11:39:00.002Z,36.20
2022-12-14T11:41:44.324Z,33.87
2022-12-14T11:44:14.796Z,33.20
2022-12-14T11:46:53.893Z,35.23
2022-12-14T11:49:26.405Z,34.60
2022-12-14T11:52:05.807Z,33.70
2022-12-14T11:54:34.035Z,34.90
2022-12-14T11:57:07.288Z,36.00
2022-12-14T11:59:54.945Z,34.27
2022-12-14T12:02:28.528Z,33.47
2022-12-14T12:05:00.732Z,33.40
2022-12-14T12:07:32.675Z,33.83
2022-12-14T12:10:06.060Z,33.07
2022-12-14T12:12:33.605Z,34.87
2022-12-14T12:15:00.914Z,34.33
2022-12-14T12:17:39.088Z,31.90
2022-12-14T12:20:26.824Z,32.83
2022-12-14T12:22:57.224Z,32.47
2022-12-14T12:25:29.552Z,32.93
2022-12-14T12:28:00.973Z,33.93
2022-12-14T12:30:30.398Z,33.97
2022-12-14T12:33:01.019Z,34.30
2022-12-14T12:35:34.912Z,34.30
2022-12-14T12:38:09.844Z,33.27
2022-12-14T12:40:42.596Z,32.03
2022-12-14T12:43:28.741Z,33.57
2022-12-14T12:46:22.574Z,31.90
2022-12-14T12:48:56.033Z,31.17
2022-12-14T12:51:28.147Z,31.27
2022-12-14T12:54:15.768Z,30.93
2022-12-14T12:56:48.306Z,31.17
2022-12-14T12:59:21.468Z,30.70
2022-12-14T13:01:50.733Z,29.97
2022-12-14T13:04:33.770Z,30.37
2022-12-14T13:07:06.045Z,28.30
2022-12-14T13:09:39.493Z,28.33
2022-12-14T13:12:09.007Z,29.50
2022-12-14T13:14:39.775Z,29.53
2022-12-14T13:17:08.526Z,28.40
2022-12-14T13:19:51.997Z,28.10
2022-12-14T13:22:30.695Z,26.53
2022-12-14T13:25:27.282Z,27.70
2022-12-14T13:28:13.478Z,26.77
2022-12-14T13:30:55.304Z,33.05
2022-12-14T13:33:25.653Z,28.50
2022-12-14T13:35:59.238Z,28.10
2022-12-14T13:38:45.837Z,26.57
2022-12-14T13:41:31.897Z,26.67
2022-12-14T13:44:10.912Z,25.67
2022-12-14T13:46:38.521Z,26.07
2022-12-14T13:49:07.316Z,25.43
2022-12-14T13:51:39.089Z,27.13
2022-12-14T13:54:19.670Z,27.53
2022-12-14T13:56:48.055Z,27.27
2022-12-14T13:59:34.539Z,26.20
2022-12-14T14:02:02.730Z,26.70
2022-12-14T14:04:31.018Z,27.37
2022-12-14T14:07:16.983Z,27.07
2022-12-14T14:09:47.097Z,25.70
2022-12-14T14:12:43.903Z,26.83
2022-12-14T14:15:13.165Z,27.17
2022-12-14T14:17:51.549Z,27.50
2022-12-14T14:20:37.507Z,26.00
2022-12-14T14:23:14.173Z,26.07
2022-12-14T14:25:44.470Z,26.40
2022-12-14T14:28:19.160Z,26.83
2022-12-14T14:30:51.670Z,27.07
2022-12-14T14:33:46.023Z,26.87
2022-12-14T14:36:15.154Z,26.97
2022-12-14T14:38:43.182Z,26.63
2022-12-14T14:41:21.399Z,30.90
2022-12-14T14:43:52.042Z,28.47
2022-12-14T14:46:23.054Z,30.80
2022-12-14T14:48:52.579Z,31.97
2022-12-14T14:51:21.633Z,32.03
2022-12-14T14:53:50.508Z,32.60
2022-12-14T14:56:30.517Z,31.87
2022-12-14T14:59:18.255Z,32.10
2022-12-14T15:01:46.127Z,33.10
2022-12-14T15:04:23.161Z,35.13
2022-12-14T15:06:52.304Z,35.53
2022-12-14T15:09:30.343Z,37.47
2022-12-14T15:12:04.213Z,36.57
2022-12-14T15:14:32.814Z,37.67
2022-12-14T15:17:11.864Z,36.13
2022-12-14T15:19:39.470Z,37.20
2022-12-14T15:22:08.353Z,38.53
2022-12-14T15:24:39.053Z,36.83
2022-12-14T15:27:17.175Z,36.80
2022-12-14T15:29:46.055Z,38.10
2022-12-14T15:32:17.817Z,38.20
2022-12-14T15:35:06.573Z,37.97
2022-12-14T15:37:46.119Z,38.47
2022-12-14T15:40:16.494Z,37.73
2022-12-14T15:42:48.251Z,37.90
2022-12-14T15:45:18.533Z,37.53
2022-12-14T15:47:49.245Z,39.90
2022-12-14T15:50:32.774Z,37.90
2022-12-14T15:53:07.828Z,36.97
2022-12-14T15:55:37.557Z,37.87
2022-12-14T15:58:14.016Z,37.40
2022-12-14T16:00:43.597Z,37.17
2022-12-14T16:03:24.954Z,36.57
2022-12-14T16:05:52.704Z,36.43
2022-12-14T16:08:21.127Z,36.43
2022-12-14T16:10:51.641Z,36.77
2022-12-14T16:13:29.162Z,36.40
2022-12-14T16:15:58.410Z,35.30
2022-12-14T16:18:25.861Z,36.30
2022-12-14T16:21:01.141Z,35.10
2022-12-14T16:23:34.106Z,35.13
2022-12-14T16:26:04.537Z,33.83
2022-12-14T16:28:37.220Z,32.87
2022-12-14T16:31:13.722Z,32.90
2022-12-14T16:33:42.561Z,32.07
2022-12-14T16:36:22.731Z,33.33
2022-12-14T16:38:57.838Z,34.27
2022-12-14T16:41:42.029Z,32.67
2022-12-14T16:44:19.783Z,33.53
2022-12-14T16:47:03.043Z,32.50
2022-12-14T16:49:40.925Z,33.73
2022-12-14T16:52:17.090Z,32.83
2022-12-14T16:54:44.848Z,33.70
2022-12-14T16:57:19.927Z,33.67
2022-12-14T16:59:49.083Z,36.37
2022-12-14T17:02:28.680Z,37.40
2022-12-14T17:04:57.686Z,37.77
2022-12-14T17:07:26.285Z,38.43
2022-12-14T17:09:56.431Z,38.97
2022-12-14T17:12:25.183Z,39.63
2022-12-14T17:14:52.559Z,38.73
2022-12-14T17:17:23.350Z,39.17
2022-12-14T17:19:50.920Z,40.73
2022-12-14T17:22:25.953Z,39.50
2022-12-14T17:24:54.158Z,40.50
2022-12-14T17:27:26.874Z,39.87
2022-12-14T17:29:54.971Z,39.17
2022-12-14T17:32:22.953Z,39.70
2022-12-14T17:34:50.256Z,40.63
2022-12-14T17:37:21.620Z,41.43
2022-12-14T17:39:49.600Z,40.07
2022-12-14T17:42:18.464Z,39.23
2022-12-14T17:44:49.652Z,37.67
2022-12-14T17:47:18.000Z,36.97
2022-12-14T17:49:45.282Z,39.47
2022-12-14T17:52:20.701Z,37.70
2022-12-14T17:54:48.902Z,36.70
2022-12-14T17:57:20.516Z,38.37
2022-12-14T17:59:49.060Z,37.47
2022-12-14T18:02:28.819Z,37.80
2022-12-14T18:04:56.692Z,37.57
2022-12-14T18:07:24.098Z,37.33
2022-12-14T18:09:53.682Z,36.73
2022-12-14T18:12:23.948Z,36.03
2022-12-14T18:14:52.191Z,35.83
2022-12-14T18:17:19.564Z,36.10
2022-12-14T18:19:47.921Z,36.73
2022-12-14T18:22:17.402Z,35.77
2022-12-14T18:24:45.884Z,35.67
2022-12-14T18:27:15.500Z,35.67
2022-12-14T18:29:43.329Z,36.33
2022-12-14T18:32:15.157Z,35.20
2022-12-14T18:34:42.669Z,36.40
2022-12-14T18:37:10.618Z,35.40
2022-12-14T18:39:38.039Z,37.00
2022-12-14T18:42:05.585Z,38.00
2022-12-14T18:44:32.960Z,36.73
2022-12-14T18:47:20.314Z,37.10
2022-12-14T18:49:47.600Z,45.55
2022-12-14T18:52:14.972Z,38.70
2022-12-14T18:54:42.444Z,37.07
2022-12-14T18:57:11.473Z,36.47
2022-12-14T18:59:42.473Z,36.63
2022-12-14T19:02:15.401Z,35.37
2022-12-14T19:04:43.426Z,35.60
2022-12-14T19:07:11.270Z,35.63
2022-12-14T19:09:38.641Z,36.90
2022-12-14T19:12:06.079Z,35.53
2022-12-14T19:14:33.357Z,35.53
2022-12-14T19:17:00.980Z,36.10
2022-12-14T19:19:35.706Z,36.90
2022-12-14T19:22:07.030Z,35.67
2022-12-14T19:24:34.374Z,35.63
2022-12-14T19:27:02.339Z,36.53
2022-12-14T19:29:29.788Z,36.00
2022-12-14T19:32:03.365Z,36.03
2022-12-14T19:34:32.551Z,36.33
2022-12-14T19:36:59.794Z,35.57
2022-12-14T19:39:27.125Z,35.33
2022-12-14T19:41:54.783Z,37.43
2022-12-14T19:44:22.216Z,35.40
2022-12-14T19:46:49.853Z,36.23
2022-12-14T19:49:17.428Z,35.03
2022-12-14T19:51:45.111Z,35.50
2022-12-14T19:54:12.767Z,34.83
2022-12-14T19:56:40.548Z,35.30
2022-12-14T19:59:08.257Z,36.57
2022-12-14T20:01:40.715Z,37.23
2022-12-14T20:04:10.942Z,35.87
2022-12-14T20:06:38.271Z,34.40
2022-12-14T20:09:06.336Z,35.87
2022-12-14T20:11:33.979Z,34.37
2022-12-14T20:14:03.234Z,34.90
2022-12-14T20:16:31.005Z,35.50
2022-12-14T20:18:58.815Z,36.17
2022-12-14T20:21:29.346Z,35.43
2022-12-14T20:24:00.081Z,37.10
2022-12-14T20:26:28.143Z,34.77
2022-12-14T20:28:56.586Z,34.97
2022-12-14T20:31:24.215Z,35.67
2022-12-14T20:33:51.654Z,37.67
2022-12-14T20:36:19.208Z,35.73
2022-12-14T20:38:49.249Z,35.30
2022-12-14T20:41:17.494Z,35.57
2022-12-14T20:43:45.373Z,36.00
2022-12-14T20:46:29.649Z,35.13
2022-12-14T20:48:57.538Z,36.37
2022-12-14T20:51:25.127Z,35.43
2022-12-14T20:53:52.471Z,36.53
2022-12-14T20:56:20.918Z,35.97
2022-12-14T20:58:48.832Z,36.77
2022-12-14T21:01:16.993Z,36.37
2022-12-14T21:03:46.851Z,38.30
2022-12-14T21:06:15.980Z,37.57
2022-12-14T21:09:01.936Z,36.80
2022-12-14T21:11:48.190Z,36.90
2022-12-14T21:14:15.774Z,36.07
2022-12-14T21:16:43.481Z,35.73
2022-12-14T21:19:12.176Z,35.13
2022-12-14T21:21:40.151Z,35.60
2022-12-14T21:24:17.671Z,34.87
2022-12-14T21:26:58.864Z,34.53
2022-12-14T21:29:28.228Z,33.80
2022-12-14T21:31:56.280Z,34.47
2022-12-14T21:34:24.510Z,32.87
2022-12-14T21:36:51.828Z,34.77
2022-12-14T21:39:19.593Z,34.73
2022-12-14T21:42:06.059Z,33.80
2022-12-14T21:44:36.637Z,33.50
2022-12-14T21:47:05.350Z,33.57
2022-12-14T21:49:32.642Z,33.67
2022-12-14T21:52:00.569Z,33.70
2022-12-14T21:54:29.847Z,33.43
2022-12-14T21:57:16.100Z,33.37
2022-12-14T21:59:47.156Z,32.53
2022-12-14T22:02:25.188Z,31.53
2022-12-14T22:04:56.425Z,31.60
2022-12-14T22:07:25.046Z,31.30
2022-12-14T22:09:52.297Z,31.83
2022-12-14T22:12:19.811Z,31.47
2022-12-14T22:14:48.214Z,32.00
2022-12-14T22:17:15.915Z,31.70
2022-12-14T22:19:43.398Z,31.67
2022-12-14T22:22:13.539Z,31.83
2022-12-14T22:24:40.972Z,30.57
2022-12-14T22:27:08.363Z,31.80
2022-12-14T22:29:35.704Z,31.63
2022-12-14T22:32:03.064Z,31.43
2022-12-14T22:34:30.636Z,31.87
2022-12-14T22:36:57.904Z,31.23
2022-12-14T22:39:25.159Z,31.93
2022-12-14T22:41:52.513Z,31.83
